Wetterdaten: Woche 28.03.16 - 03.04.16 (KW13)
Datum Zeit Temperatur Luftfeuchte Luftdruck Regen Wind Richtung Sonnenschein ET UV Solar Taupunkt Windchill Windben
28.03.2016 00:00 6,9 C 76 % 1010,9 hPa 0,0 l/m 0,0 km/h (0 Bft) N 0,00 h 0,000 mm 0,0 UV-I 0 W/m 3,0 C 6,9 C 0,7 km/h (0 Bft)
28.03.2016 01:00 6,1 C 78 % 1010,4 hPa 0,0 l/m 0,1 km/h (0 Bft) N 0,00 h 0,025 mm 0,0 UV-I 0 W/m 2,7 C 6,1 C 1,2 km/h (1 Bft)
28.03.2016 02:00 5,5 C 79 % 1010,0 hPa 0,0 l/m 0,1 km/h (0 Bft) N 0,00 h 0,026 mm 0,0 UV-I 0 W/m 2,2 C 5,5 C 1,2 km/h (1 Bft)
28.03.2016 03:00 3,6 C 86 % 1009,2 hPa 0,0 l/m 0,0 km/h (0 Bft) N 0,00 h 0,000 mm 0,0 UV-I 0 W/m 1,5 C 3,6 C 0,0 km/h (0 Bft)
28.03.2016 04:00 3,5 C 88 % 1008,4 hPa 0,0 l/m 0,0 km/h (0 Bft) N 0,00 h 0,000 mm 0,0 UV-I 0 W/m 1,6 C 3,5 C 0,8 km/h (0 Bft)
28.03.2016 05:00 3,0 C 88 % 1007,7 hPa 0,0 l/m 0,0 km/h (0 Bft) N 0,00 h 0,000 mm 0,0 UV-I 0 W/m 1,3 C 3,0 C 0,7 km/h (0 Bft)
28.03.2016 06:00 2,2 C 90 % 1006,8 hPa 0,0 l/m 0,0 km/h (0 Bft) N 0,00 h 0,000 mm 0,0 UV-I 0 W/m 0,8 C 2,2 C 0,0 km/h (0 Bft)
28.03.2016 07:00 3,4 C 89 % 1006,0 hPa 0,0 l/m 0,5 km/h (0 Bft) NO 0,25 h 0,000 mm 0,0 UV-I 28 W/m 1,7 C 3,4 C 3,7 km/h (1 Bft)
28.03.2016 08:00 5,0 C 84 % 1005,4 hPa 0,0 l/m 1,4 km/h (1 Bft) O-NO 0,00 h 0,025 mm 0,0 UV-I 63 W/m 2,4 C 5,0 C 6,8 km/h (2 Bft)
28.03.2016 09:00 6,2 C 78 % 1004,4 hPa 0,0 l/m 1,0 km/h (0 Bft) O-SO 0,00 h 0,026 mm 0,6 UV-I 104 W/m 2,7 C 6,2 C 6,1 km/h (2 Bft)
28.03.2016 10:00 7,9 C 69 % 1003,9 hPa 0,0 l/m 2,9 km/h (1 Bft) SO 0,00 h 0,050 mm 0,5 UV-I 99 W/m 2,7 C 7,9 C 10,9 km/h (2 Bft)
28.03.2016 11:00 7,8 C 74 % 1003,4 hPa 0,2 l/m 2,9 km/h (1 Bft) SO 0,00 h 0,051 mm 0,5 UV-I 79 W/m 3,4 C 7,8 C 12,7 km/h (3 Bft)
28.03.2016 12:00 7,7 C 75 % 1002,5 hPa 0,0 l/m 8,5 km/h (2 Bft) SO 0,00 h 0,051 mm 0,6 UV-I 71 W/m 3,6 C 5,9 C 23,0 km/h (4 Bft)
28.03.2016 13:00 7,9 C 76 % 1001,8 hPa 0,0 l/m 7,8 km/h (2 Bft) O-SO 0,00 h 0,051 mm 0,2 UV-I 51 W/m 4,0 C 6,7 C 19,7 km/h (3 Bft)
28.03.2016 14:00 8,2 C 79 % 1001,2 hPa 0,0 l/m 6,7 km/h (2 Bft) S-SO 0,00 h 0,051 mm 0,2 UV-I 49 W/m 4,8 C 7,1 C 20,5 km/h (4 Bft)
28.03.2016 15:00 8,3 C 82 % 1000,4 hPa 0,0 l/m 7,1 km/h (2 Bft) O-SO 0,00 h 0,050 mm 0,6 UV-I 47 W/m 5,4 C 7,2 C 17,2 km/h (3 Bft)
28.03.2016 16:00 8,0 C 86 % 999,9 hPa 3,4 l/m 3,8 km/h (1 Bft) W-NW 0,00 h 0,026 mm 0,0 UV-I 24 W/m 5,8 C 7,4 C 10,7 km/h (2 Bft)
28.03.2016 17:00 7,8 C 87 % 1000,1 hPa 0,2 l/m 5,5 km/h (1 Bft) SW 0,17 h 0,025 mm 0,6 UV-I 134 W/m 5,8 C 7,4 C 15,8 km/h (3 Bft)
28.03.2016 18:00 9,1 C 82 % 1000,1 hPa 0,0 l/m 2,2 km/h (1 Bft) SW 0,42 h 0,076 mm 0,5 UV-I 136 W/m 6,3 C 9,0 C 8,4 km/h (2 Bft)
28.03.2016 19:00 8,1 C 86 % 1000,8 hPa 0,0 l/m 0,1 km/h (0 Bft) N 0,00 h 0,051 mm 0,0 UV-I 25 W/m 5,9 C 8,1 C 1,7 km/h (1 Bft)
28.03.2016 20:00 7,9 C 77 % 1001,0 hPa 0,0 l/m 3,9 km/h (1 Bft) SW 0,00 h 0,000 mm 0,0 UV-I 0 W/m 4,1 C 7,3 C 13,1 km/h (3 Bft)
28.03.2016 21:00 7,1 C 82 % 1001,7 hPa 0,2 l/m 3,0 km/h (1 Bft) W-NW 0,00 h 0,026 mm 0,0 UV-I 0 W/m 4,2 C 6,6 C 8,6 km/h (2 Bft)
28.03.2016 22:00 6,3 C 87 % 1002,0 hPa 0,0 l/m 0,1 km/h (0 Bft) N 0,00 h 0,025 mm 0,0 UV-I 0 W/m 4,3 C 6,3 C 2,1 km/h (1 Bft)
28.03.2016 23:00 6,0 C 89 % 1001,9 hPa 0,4 l/m 0,9 km/h (0 Bft) W 0,00 h 0,000 mm 0,0 UV-I 0 W/m 4,2 C 6,0 C 5,1 km/h (1 Bft)
29.03.2016 00:00 4,9 C 91 % 1002,1 hPa 1,0 l/m 0,2 km/h (0 Bft) NW 0,00 h 0,000 mm 0,0 UV-I 0 W/m 3,5 C 4,9 C 2,7 km/h (1 Bft)
29.03.2016 01:00 4,6 C 93 % 1002,6 hPa 0,0 l/m 0,2 km/h (0 Bft) W 0,00 h 0,000 mm 0,0 UV-I 0 W/m 3,5 C 4,6 C 1,9 km/h (1 Bft)
29.03.2016 02:00 5,1 C 91 % 1003,0 hPa 0,0 l/m 1,1 km/h (0 Bft) W-SW 0,00 h 0,000 mm 0,0 UV-I 0 W/m 3,7 C 5,1 C 6,3 km/h (2 Bft)
29.03.2016 03:00 5,2 C 89 % 1003,6 hPa 0,0 l/m 2,5 km/h (1 Bft) W-SW 0,00 h 0,000 mm 0,0 UV-I 0 W/m 3,5 C 5,2 C 11,0 km/h (2 Bft)
29.03.2016 04:00 5,0 C 89 % 1004,2 hPa 0,0 l/m 1,2 km/h (1 Bft) SW 0,00 h 0,000 mm 0,0 UV-I 0 W/m 3,3 C 5,0 C 7,1 km/h (2 Bft)
29.03.2016 05:00 4,8 C 89 % 1005,1 hPa 0,4 l/m 2,9 km/h (1 Bft) W 0,00 h 0,000 mm 0,0 UV-I 0 W/m 3,1 C 4,6 C 10,5 km/h (2 Bft)
29.03.2016 06:00 4,4 C 90 % 1005,6 hPa 0,2 l/m 0,6 km/h (0 Bft) S-SW 0,00 h 0,000 mm 0,0 UV-I 0 W/m 2,9 C 4,4 C 4,9 km/h (1 Bft)
29.03.2016 07:00 4,7 C 89 % 1006,3 hPa 0,0 l/m 2,2 km/h (1 Bft) SW 0,08 h 0,000 mm 0,0 UV-I 24 W/m 3,0 C 4,7 C 11,1 km/h (2 Bft)
29.03.2016 08:00 5,5 C 84 % 1007,0 hPa 0,0 l/m 4,9 km/h (1 Bft) S-SW 0,50 h 0,025 mm 0,2 UV-I 129 W/m 3,0 C 5,1 C 15,3 km/h (3 Bft)
29.03.2016 09:00 6,1 C 81 % 1007,6 hPa 0,0 l/m 8,8 km/h (2 Bft) SW 0,25 h 0,077 mm 0,5 UV-I 122 W/m 3,1 C 4,1 C 20,6 km/h (4 Bft)
29.03.2016 10:00 7,0 C 75 % 1008,2 hPa 0,0 l/m 9,7 km/h (2 Bft) W-SW 0,25 h 0,076 mm 0,9 UV-I 246 W/m 2,9 C 4,5 C 22,0 km/h (4 Bft)
29.03.2016 11:00 7,8 C 71 % 1008,8 hPa 0,0 l/m 12,5 km/h (3 Bft) SW 0,50 h 0,127 mm 1,7 UV-I 393 W/m 2,9 C 3,8 C 25,5 km/h (4 Bft)
29.03.2016 12:00 8,9 C 64 % 1009,0 hPa 0,0 l/m 12,3 km/h (3 Bft) W-SW 0,33 h 0,203 mm 1,9 UV-I 337 W/m 2,5 C 5,2 C 26,4 km/h (4 Bft)
29.03.2016 13:00 9,8 C 58 % 1009,4 hPa 0,0 l/m 13,7 km/h (3 Bft) W-SW 0,92 h 0,229 mm 2,5 UV-I 570 W/m 2,0 C 5,6 C 28,7 km/h (4 Bft)
29.03.2016 14:00 10,8 C 53 % 1009,4 hPa 0,0 l/m 11,8 km/h (2 Bft) W 0,83 h 0,304 mm 2,6 UV-I 623 W/m 1,7 C 7,7 C 25,7 km/h (4 Bft)
29.03.2016 15:00 10,4 C 56 % 1009,7 hPa 0,0 l/m 14,4 km/h (3 Bft) SW 0,25 h 0,356 mm 1,3 UV-I 261 W/m 1,9 C 6,0 C 29,2 km/h (5 Bft)
29.03.2016 16:00 9,7 C 63 % 1009,8 hPa 0,0 l/m 4,0 km/h (1 Bft) W 0,25 h 0,178 mm 1,1 UV-I 214 W/m 3,0 C 9,5 C 12,9 km/h (3 Bft)
29.03.2016 17:00 11,5 C 56 % 1009,5 hPa 0,0 l/m 4,2 km/h (1 Bft) NW 0,67 h 0,127 mm 0,8 UV-I 298 W/m 2,9 C 10,9 C 14,5 km/h (3 Bft)
29.03.2016 18:00 10,6 C 59 % 1009,6 hPa 0,4 l/m 7,8 km/h (2 Bft) W 0,58 h 0,152 mm 0,4 UV-I 135 W/m 2,6 C 9,2 C 20,9 km/h (4 Bft)
29.03.2016 19:00 7,4 C 82 % 1010,6 hPa 0,0 l/m 0,1 km/h (0 Bft) N 0,17 h 0,102 mm 0,0 UV-I 19 W/m 4,6 C 7,4 C 0,9 km/h (0 Bft)
29.03.2016 20:00 6,0 C 87 % 1010,8 hPa 0,0 l/m 0,0 km/h (0 Bft) N 0,00 h 0,000 mm 0,0 UV-I 0 W/m 4,0 C 6,0 C 0,0 km/h (0 Bft)
29.03.2016 21:00 4,6 C 90 % 1011,0 hPa 0,0 l/m 0,0 km/h (0 Bft) N 0,00 h 0,000 mm 0,0 UV-I 0 W/m 3,0 C 4,6 C 0,0 km/h (0 Bft)
29.03.2016 22:00 3,6 C 91 % 1011,3 hPa 0,0 l/m 0,0 km/h (0 Bft) N 0,00 h 0,000 mm 0,0 UV-I 0 W/m 2,3 C 3,6 C 0,0 km/h (0 Bft)
29.03.2016 23:00 2,9 C 93 % 1011,1 hPa 0,0 l/m 0,0 km/h (0 Bft) N 0,00 h 0,000 mm 0,0 UV-I 0 W/m 1,9 C 2,9 C 0,0 km/h (0 Bft)
30.03.2016 00:00 2,8 C 94 % 1010,6 hPa 0,0 l/m 0,0 km/h (0 Bft) N 0,00 h 0,000 mm 0,0 UV-I 0 W/m 1,9 C 2,8 C 0,0 km/h (0 Bft)
30.03.2016 01:00 3,2 C 94 % 1009,8 hPa 0,0 l/m 0,0 km/h (0 Bft) N 0,00 h 0,000 mm 0,0 UV-I 0 W/m 2,3 C 3,2 C 0,0 km/h (0 Bft)
30.03.2016 02:00 4,0 C 95 % 1010,0 hPa 1,0 l/m 0,0 km/h (0 Bft) N 0,00 h 0,000 mm 0,0 UV-I 0 W/m 3,3 C 4,0 C 0,0 km/h (0 Bft)
30.03.2016 03:00 5,3 C 95 % 1009,5 hPa 0,2 l/m 0,0 km/h (0 Bft) N 0,00 h 0,000 mm 0,0 UV-I 0 W/m 4,6 C 5,3 C 0,0 km/h (0 Bft)
30.03.2016 04:00 5,8 C 95 % 1008,9 hPa 0,2 l/m 0,0 km/h (0 Bft) N 0,00 h 0,000 mm 0,0 UV-I 0 W/m 5,1 C 5,8 C 0,0 km/h (0 Bft)
30.03.2016 05:00 6,4 C 94 % 1008,4 hPa 0,0 l/m 0,5 km/h (0 Bft) W 0,00 h 0,000 mm 0,0 UV-I 0 W/m 5,5 C 6,4 C 5,9 km/h (2 Bft)
30.03.2016 06:00 6,6 C 93 % 1008,3 hPa 0,0 l/m 0,1 km/h (0 Bft) N 0,00 h 0,000 mm 0,0 UV-I 0 W/m 5,5 C 6,6 C 1,2 km/h (1 Bft)
30.03.2016 07:00 6,4 C 93 % 1008,2 hPa 0,0 l/m 0,1 km/h (0 Bft) N 0,00 h 0,000 mm 0,0 UV-I 15 W/m 5,4 C 6,4 C 1,7 km/h (1 Bft)
30.03.2016 08:00 7,1 C 92 % 1009,0 hPa 0,2 l/m 1,1 km/h (0 Bft) W-NW 0,00 h 0,000 mm 0,0 UV-I 18 W/m 5,9 C 7,1 C 6,6 km/h (2 Bft)
30.03.2016 09:00 7,0 C 90 % 1009,9 hPa 0,0 l/m 3,3 km/h (1 Bft) W-NW 0,00 h 0,000 mm 0,0 UV-I 53 W/m 5,4 C 6,9 C 11,3 km/h (2 Bft)
30.03.2016 10:00 6,6 C 88 % 1010,4 hPa 0,2 l/m 1,9 km/h (1 Bft) W-NW 0,00 h 0,025 mm 0,5 UV-I 76 W/m 4,8 C 6,6 C 10,1 km/h (2 Bft)
30.03.2016 11:00 7,0 C 90 % 1010,9 hPa 0,0 l/m 2,1 km/h (1 Bft) W 0,00 h 0,026 mm 1,1 UV-I 175 W/m 5,4 C 7,0 C 8,6 km/h (2 Bft)
30.03.2016 12:00 7,8 C 84 % 1011,2 hPa 0,2 l/m 4,3 km/h (1 Bft) W-NW 0,00 h 0,076 mm 1,6 UV-I 224 W/m 5,3 C 7,8 C 12,6 km/h (3 Bft)
30.03.2016 13:00 9,1 C 76 % 1011,2 hPa 0,0 l/m 3,3 km/h (1 Bft) W 0,08 h 0,102 mm 2,1 UV-I 298 W/m 5,1 C 9,1 C 11,0 km/h (2 Bft)
30.03.2016 14:00 10,5 C 65 % 1011,1 hPa 0,0 l/m 5,9 km/h (2 Bft) W 0,83 h 0,152 mm 2,4 UV-I 436 W/m 4,2 C 10,2 C 15,7 km/h (3 Bft)
30.03.2016 15:00 11,5 C 69 % 1010,9 hPa 0,0 l/m 3,9 km/h (1 Bft) S-SW 0,58 h 0,229 mm 1,9 UV-I 336 W/m 6,1 C 11,5 C 13,8 km/h (3 Bft)
30.03.2016 16:00 10,8 C 75 % 1010,9 hPa 0,0 l/m 2,0 km/h (1 Bft) S 0,00 h 0,177 mm 0,8 UV-I 142 W/m 6,5 C 10,8 C 10,1 km/h (2 Bft)
30.03.2016 17:00 10,5 C 76 % 1010,9 hPa 0,0 l/m 1,1 km/h (1 Bft) W-SW 0,00 h 0,077 mm 0,2 UV-I 62 W/m 6,4 C 10,5 C 6,8 km/h (2 Bft)
30.03.2016 18:00 10,3 C 69 % 1011,0 hPa 0,0 l/m 0,4 km/h (0 Bft) W 0,00 h 0,025 mm 0,0 UV-I 58 W/m 4,9 C 10,3 C 3,1 km/h (1 Bft)
30.03.2016 19:00 10,0 C 74 % 1011,1 hPa 0,0 l/m 1,2 km/h (1 Bft) SO 0,08 h 0,025 mm 0,0 UV-I 25 W/m 5,6 C 10,0 C 6,4 km/h (2 Bft)
30.03.2016 20:00 9,1 C 80 % 1011,3 hPa 0,0 l/m 0,4 km/h (0 Bft) S 0,00 h 0,026 mm 0,0 UV-I 0 W/m 5,8 C 9,1 C 4,4 km/h (1 Bft)
30.03.2016 21:00 8,6 C 84 % 1011,7 hPa 0,2 l/m 0,0 km/h (0 Bft) N 0,00 h 0,000 mm 0,0 UV-I 0 W/m 6,1 C 8,6 C 0,8 km/h (0 Bft)
30.03.2016 22:00 8,0 C 88 % 1012,2 hPa 0,0 l/m 0,1 km/h (0 Bft) N 0,00 h 0,000 mm 0,0 UV-I 0 W/m 6,1 C 8,0 C 0,8 km/h (0 Bft)
30.03.2016 23:00 7,4 C 91 % 1012,1 hPa 0,0 l/m 0,0 km/h (0 Bft) N 0,00 h 0,000 mm 0,0 UV-I 0 W/m 6,0 C 7,4 C 0,0 km/h (0 Bft)
31.03.2016 00:00 6,9 C 93 % 1012,0 hPa 0,0 l/m 0,0 km/h (0 Bft) N 0,00 h 0,000 mm 0,0 UV-I 0 W/m 5,8 C 6,9 C 0,0 km/h (0 Bft)
31.03.2016 01:00 6,7 C 94 % 1012,0 hPa 0,0 l/m 0,0 km/h (0 Bft) N 0,00 h 0,000 mm 0,0 UV-I 0 W/m 5,7 C 6,7 C 0,0 km/h (0 Bft)
31.03.2016 02:00 6,4 C 94 % 1012,0 hPa 0,2 l/m 0,0 km/h (0 Bft) N 0,00 h 0,000 mm 0,0 UV-I 0 W/m 5,5 C 6,4 C 0,0 km/h (0 Bft)
31.03.2016 03:00 5,9 C 93 % 1011,8 hPa 0,0 l/m 0,0 km/h (0 Bft) N 0,00 h 0,000 mm 0,0 UV-I 0 W/m 4,9 C 5,9 C 0,0 km/h (0 Bft)
31.03.2016 04:00 5,8 C 94 % 1011,5 hPa 0,0 l/m 0,0 km/h (0 Bft) N 0,00 h 0,000 mm 0,0 UV-I 0 W/m 4,8 C 5,8 C 0,0 km/h (0 Bft)
31.03.2016 05:00 5,7 C 94 % 1011,3 hPa 0,0 l/m 0,0 km/h (0 Bft) N 0,00 h 0,000 mm 0,0 UV-I 0 W/m 4,8 C 5,7 C 0,0 km/h (0 Bft)
31.03.2016 06:00 5,6 C 94 % 1011,4 hPa 0,0 l/m 0,0 km/h (0 Bft) N 0,00 h 0,000 mm 0,0 UV-I 0 W/m 4,7 C 5,6 C 0,2 km/h (0 Bft)
31.03.2016 07:00 5,6 C 90 % 1011,1 hPa 0,0 l/m 0,8 km/h (0 Bft) NO 0,00 h 0,000 mm 0,0 UV-I 7 W/m 4,1 C 5,6 C 4,0 km/h (1 Bft)
31.03.2016 08:00 6,2 C 86 % 1011,2 hPa 0,0 l/m 0,6 km/h (0 Bft) NO 0,00 h 0,000 mm 0,0 UV-I 20 W/m 4,0 C 6,2 C 4,1 km/h (1 Bft)
31.03.2016 09:00 6,4 C 84 % 1011,7 hPa 0,0 l/m 2,5 km/h (1 Bft) O-NO 0,00 h 0,000 mm 0,3 UV-I 47 W/m 3,9 C 6,4 C 11,0 km/h (2 Bft)
31.03.2016 10:00 6,8 C 83 % 1011,6 hPa 0,0 l/m 3,2 km/h (1 Bft) O-NO 0,00 h 0,025 mm 0,6 UV-I 96 W/m 4,0 C 6,8 C 12,7 km/h (3 Bft)
31.03.2016 11:00 7,1 C 83 % 1011,7 hPa 0,0 l/m 4,8 km/h (1 Bft) NO 0,00 h 0,051 mm 0,8 UV-I 123 W/m 4,3 C 6,7 C 15,3 km/h (3 Bft)
31.03.2016 12:00 6,7 C 88 % 1011,6 hPa 0,2 l/m 2,3 km/h (1 Bft) O-NO 0,00 h 0,051 mm 0,8 UV-I 101 W/m 4,9 C 6,7 C 9,5 km/h (2 Bft)
31.03.2016 13:00 6,7 C 90 % 1011,4 hPa 0,6 l/m 1,4 km/h (1 Bft) O-NO 0,00 h 0,051 mm 0,8 UV-I 99 W/m 5,1 C 6,7 C 7,1 km/h (2 Bft)
31.03.2016 14:00 6,4 C 91 % 1011,4 hPa 1,4 l/m 1,5 km/h (1 Bft) N-NO 0,00 h 0,051 mm 0,8 UV-I 109 W/m 5,1 C 6,4 C 6,8 km/h (2 Bft)
31.03.2016 15:00 6,3 C 90 % 1011,0 hPa 0,0 l/m 1,3 km/h (1 Bft) N-NO 0,00 h 0,050 mm 0,6 UV-I 70 W/m 4,8 C 6,3 C 7,8 km/h (2 Bft)
31.03.2016 16:00 5,9 C 90 % 1010,7 hPa 0,0 l/m 4,8 km/h (1 Bft) NO 0,00 h 0,026 mm 0,3 UV-I 46 W/m 4,4 C 5,4 C 15,3 km/h (3 Bft)
31.03.2016 17:00 5,3 C 92 % 1010,1 hPa 0,8 l/m 4,9 km/h (1 Bft) O-NO 0,00 h 0,025 mm 0,0 UV-I 24 W/m 4,1 C 5,0 C 16,4 km/h (3 Bft)
31.03.2016 18:00 4,7 C 92 % 1010,3 hPa 1,6 l/m 2,2 km/h (1 Bft) N-NO 0,00 h 0,026 mm 0,0 UV-I 12 W/m 3,5 C 4,7 C 11,4 km/h (2 Bft)
31.03.2016 19:00 4,0 C 93 % 1010,2 hPa 1,2 l/m 4,0 km/h (1 Bft) O-NO 0,00 h 0,000 mm 0,0 UV-I 7 W/m 2,9 C 4,0 C 15,7 km/h (3 Bft)
31.03.2016 20:00 3,6 C 92 % 1010,4 hPa 0,4 l/m 2,4 km/h (1 Bft) NO 0,00 h 0,000 mm 0,0 UV-I 0 W/m 2,5 C 3,5 C 9,1 km/h (2 Bft)
31.03.2016 21:00 3,4 C 92 % 1011,2 hPa 0,0 l/m 0,8 km/h (0 Bft) O-NO 0,00 h 0,000 mm 0,0 UV-I 0 W/m 2,2 C 3,4 C 6,6 km/h (2 Bft)
31.03.2016 22:00 3,3 C 92 % 1011,4 hPa 0,8 l/m 3,0 km/h (1 Bft) O-NO 0,00 h 0,000 mm 0,0 UV-I 0 W/m 2,0 C 3,1 C 12,9 km/h (3 Bft)
31.03.2016 23:00 3,0 C 92 % 1011,6 hPa 2,2 l/m 3,6 km/h (1 Bft) NO 0,00 h 0,000 mm 0,0 UV-I 0 W/m 1,9 C 3,0 C 16,1 km/h (3 Bft)
01.04.2016 00:00 2,9 C 92 % 1011,5 hPa 0,4 l/m 8,7 km/h (2 Bft) NO 0,00 h 0,000 mm 0,0 UV-I 0 W/m 1,8 C 0,8 C 21,3 km/h (4 Bft)
01.04.2016 01:00 2,7 C 93 % 1012,6 hPa 1,2 l/m 4,6 km/h (1 Bft) NO 0,00 h 0,000 mm 0,0 UV-I 0 W/m 1,7 C 2,7 C 14,6 km/h (3 Bft)
01.04.2016 02:00 2,2 C 93 % 1013,3 hPa 2,8 l/m 1,5 km/h (1 Bft) N 0,00 h 0,000 mm 0,0 UV-I 0 W/m 1,2 C 2,2 C 9,9 km/h (2 Bft)
01.04.2016 03:00 2,1 C 94 % 1014,4 hPa 1,4 l/m 0,5 km/h (0 Bft) O-NO 0,00 h 0,000 mm 0,0 UV-I 0 W/m 1,2 C 2,1 C 5,8 km/h (1 Bft)
01.04.2016 04:00 2,3 C 94 % 1015,1 hPa 0,8 l/m 1,2 km/h (1 Bft) NO 0,00 h 0,000 mm 0,0 UV-I 0 W/m 1,5 C 2,3 C 9,9 km/h (2 Bft)
01.04.2016 05:00 2,6 C 94 % 1015,7 hPa 0,4 l/m 2,9 km/h (1 Bft) NO 0,00 h 0,000 mm 0,0 UV-I 0 W/m 1,7 C 2,6 C 14,8 km/h (3 Bft)
01.04.2016 06:00 2,9 C 93 % 1016,3 hPa 0,0 l/m 3,8 km/h (1 Bft) N-NO 0,00 h 0,000 mm 0,0 UV-I 0 W/m 1,9 C 2,8 C 14,0 km/h (3 Bft)
01.04.2016 07:00 3,2 C 92 % 1016,9 hPa 0,0 l/m 5,5 km/h (1 Bft) N-NO 0,00 h 0,000 mm 0,0 UV-I 13 W/m 2,0 C 2,6 C 15,2 km/h (3 Bft)
01.04.2016 08:00 3,4 C 92 % 1018,4 hPa 0,0 l/m 0,6 km/h (0 Bft) N-NO 0,00 h 0,000 mm 0,4 UV-I 69 W/m 2,2 C 3,4 C 6,7 km/h (2 Bft)
01.04.2016 09:00 5,2 C 88 % 1019,4 hPa 0,0 l/m 3,1 km/h (1 Bft) NO 0,33 h 0,025 mm 0,7 UV-I 182 W/m 3,4 C 5,2 C 13,7 km/h (3 Bft)
01.04.2016 10:00 5,6 C 85 % 1020,2 hPa 0,0 l/m 4,6 km/h (1 Bft) NO 0,00 h 0,077 mm 0,9 UV-I 183 W/m 3,4 C 4,8 C 15,6 km/h (3 Bft)
01.04.2016 11:00 6,5 C 82 % 1021,2 hPa 0,0 l/m 4,8 km/h (1 Bft) O-NO 0,17 h 0,076 mm 1,7 UV-I 282 W/m 3,6 C 5,9 C 13,6 km/h (3 Bft)
01.04.2016 12:00 8,4 C 72 % 1021,8 hPa 0,0 l/m 9,6 km/h (2 Bft) NO 0,92 h 0,127 mm 3,0 UV-I 589 W/m 3,6 C 6,1 C 19,7 km/h (3 Bft)
01.04.2016 13:00 9,8 C 64 % 1021,8 hPa 0,0 l/m 10,8 km/h (2 Bft) NO 0,92 h 0,279 mm 3,5 UV-I 730 W/m 3,3 C 7,1 C 22,1 km/h (4 Bft)
01.04.2016 14:00 10,4 C 61 % 1021,8 hPa 0,0 l/m 10,0 km/h (2 Bft) O-NO 0,92 h 0,356 mm 3,0 UV-I 596 W/m 3,1 C 8,1 C 23,5 km/h (4 Bft)
01.04.2016 15:00 10,2 C 60 % 1021,4 hPa 0,0 l/m 10,8 km/h (2 Bft) O-NO 1,00 h 0,330 mm 2,5 UV-I 590 W/m 2,9 C 7,4 C 21,8 km/h (4 Bft)
01.04.2016 16:00 10,8 C 59 % 1021,4 hPa 0,0 l/m 7,0 km/h (2 Bft) NO 0,92 h 0,305 mm 1,7 UV-I 469 W/m 3,0 C 10,0 C 18,0 km/h (3 Bft)
01.04.2016 17:00 10,9 C 59 % 1020,9 hPa 0,0 l/m 5,7 km/h (1 Bft) O-NO 1,00 h 0,254 mm 1,0 UV-I 361 W/m 3,2 C 10,6 C 16,8 km/h (3 Bft)
01.04.2016 18:00 10,3 C 61 % 1020,6 hPa 0,0 l/m 6,3 km/h (2 Bft) O-NO 1,00 h 0,178 mm 0,5 UV-I 188 W/m 3,1 C 9,5 C 16,9 km/h (3 Bft)
01.04.2016 19:00 9,3 C 64 % 1020,5 hPa 0,0 l/m 4,5 km/h (1 Bft) O-NO 0,50 h 0,101 mm 0,0 UV-I 46 W/m 2,9 C 9,2 C 16,1 km/h (3 Bft)
01.04.2016 20:00 7,7 C 69 % 1021,1 hPa 0,0 l/m 0,3 km/h (0 Bft) N 0,00 h 0,051 mm 0,0 UV-I 0 W/m 2,5 C 7,7 C 3,9 km/h (1 Bft)
01.04.2016 21:00 6,2 C 74 % 1021,6 hPa 0,0 l/m 0,2 km/h (0 Bft) NO 0,00 h 0,000 mm 0,0 UV-I 0 W/m 1,9 C 6,2 C 3,2 km/h (1 Bft)
01.04.2016 22:00 5,3 C 77 % 1021,6 hPa 0,0 l/m 0,1 km/h (0 Bft) N 0,00 h 0,025 mm 0,0 UV-I 0 W/m 1,6 C 5,3 C 3,3 km/h (1 Bft)
01.04.2016 23:00 4,4 C 80 % 1021,4 hPa 0,0 l/m 0,0 km/h (0 Bft) N 0,00 h 0,026 mm 0,0 UV-I 0 W/m 1,3 C 4,4 C 0,5 km/h (0 Bft)
02.04.2016 00:00 3,1 C 85 % 1021,3 hPa 0,0 l/m 0,0 km/h (0 Bft) N 0,00 h 0,000 mm 0,0 UV-I 0 W/m 0,7 C 3,1 C 0,0 km/h (0 Bft)
02.04.2016 01:00 2,4 C 87 % 1021,1 hPa 0,0 l/m 0,0 km/h (0 Bft) N 0,00 h 0,000 mm 0,0 UV-I 0 W/m 0,5 C 2,4 C 0,0 km/h (0 Bft)
02.04.2016 02:00 1,3 C 90 % 1021,1 hPa 0,0 l/m 0,0 km/h (0 Bft) N 0,00 h 0,000 mm 0,0 UV-I 0 W/m -0,3 C 1,3 C 0,0 km/h (0 Bft)
02.04.2016 03:00 0,5 C 91 % 1020,7 hPa 0,0 l/m 0,0 km/h (0 Bft) N 0,00 h 0,000 mm 0,0 UV-I 0 W/m -0,8 C 0,5 C 0,0 km/h (0 Bft)
02.04.2016 04:00 -0,2 C 92 % 1020,2 hPa 0,0 l/m 0,0 km/h (0 Bft) N 0,00 h 0,000 mm 0,0 UV-I 0 W/m -1,3 C -0,2 C 0,0 km/h (0 Bft)
02.04.2016 05:00 -0,7 C 93 % 1019,9 hPa 0,0 l/m 0,0 km/h (0 Bft) N 0,00 h 0,000 mm 0,0 UV-I 0 W/m -1,7 C -0,7 C 0,0 km/h (0 Bft)
02.04.2016 06:00 -1,1 C 93 % 1019,9 hPa 0,0 l/m 0,0 km/h (0 Bft) N 0,00 h 0,000 mm 0,0 UV-I 0 W/m -2,1 C -1,1 C 0,0 km/h (0 Bft)
02.04.2016 07:00 -1,2 C 94 % 1019,9 hPa 0,0 l/m 0,0 km/h (0 Bft) N 0,00 h 0,000 mm 0,0 UV-I 27 W/m -2,0 C -1,2 C 0,0 km/h (0 Bft)
02.04.2016 08:00 1,0 C 93 % 1019,8 hPa 0,0 l/m 0,0 km/h (0 Bft) N 0,33 h 0,000 mm 0,5 UV-I 125 W/m 0,1 C 1,0 C 0,0 km/h (0 Bft)
02.04.2016 09:00 5,2 C 85 % 1019,5 hPa 0,0 l/m 0,5 km/h (0 Bft) NO 1,00 h 0,051 mm 0,9 UV-I 258 W/m 2,8 C 5,2 C 2,9 km/h (1 Bft)
02.04.2016 10:00 9,1 C 72 % 1019,5 hPa 0,0 l/m 1,5 km/h (1 Bft) O-NO 1,00 h 0,101 mm 1,7 UV-I 432 W/m 4,4 C 9,1 C 8,4 km/h (2 Bft)
02.04.2016 11:00 10,4 C 70 % 1019,3 hPa 0,0 l/m 2,9 km/h (1 Bft) O 0,75 h 0,204 mm 1,9 UV-I 370 W/m 5,2 C 10,3 C 10,7 km/h (2 Bft)
02.04.2016 12:00 12,2 C 69 % 1018,8 hPa 0,0 l/m 1,9 km/h (1 Bft) O-SO 0,83 h 0,177 mm 2,7 UV-I 535 W/m 6,5 C 12,2 C 10,0 km/h (2 Bft)
02.04.2016 13:00 12,7 C 68 % 1018,0 hPa 0,0 l/m 3,6 km/h (1 Bft) O-SO 0,67 h 0,254 mm 2,4 UV-I 480 W/m 6,9 C 12,7 C 12,4 km/h (3 Bft)
02.04.2016 14:00 14,5 C 62 % 1017,4 hPa 0,0 l/m 3,4 km/h (1 Bft) O 1,00 h 0,254 mm 2,4 UV-I 553 W/m 7,3 C 14,5 C 13,0 km/h (3 Bft)
02.04.2016 15:00 14,8 C 62 % 1016,8 hPa 0,0 l/m 3,1 km/h (1 Bft) NO 0,92 h 0,280 mm 1,7 UV-I 397 W/m 7,5 C 14,8 C 11,7 km/h (2 Bft)
02.04.2016 16:00 14,8 C 62 % 1016,4 hPa 0,0 l/m 2,0 km/h (1 Bft) O 0,50 h 0,228 mm 1,1 UV-I 289 W/m 7,6 C 14,8 C 8,1 km/h (2 Bft)
02.04.2016 17:00 15,7 C 61 % 1015,7 hPa 0,0 l/m 2,1 km/h (1 Bft) O-NO 1,00 h 0,153 mm 0,8 UV-I 275 W/m 8,2 C 15,7 C 8,2 km/h (2 Bft)
02.04.2016 18:00 15,6 C 62 % 1015,6 hPa 0,0 l/m 0,3 km/h (0 Bft) O-NO 0,50 h 0,152 mm 0,3 UV-I 134 W/m 8,3 C 15,6 C 3,6 km/h (1 Bft)
02.04.2016 19:00 14,4 C 67 % 1015,3 hPa 0,0 l/m 0,0 km/h (0 Bft) N 0,17 h 0,076 mm 0,0 UV-I 27 W/m 8,4 C 14,4 C 0,0 km/h (0 Bft)
02.04.2016 20:00 12,1 C 75 % 1015,0 hPa 0,0 l/m 0,0 km/h (0 Bft) N 0,00 h 0,026 mm 0,0 UV-I 0 W/m 7,7 C 12,1 C 0,0 km/h (0 Bft)
02.04.2016 21:00 10,0 C 82 % 1014,8 hPa 0,0 l/m 0,0 km/h (0 Bft) N 0,00 h 0,000 mm 0,0 UV-I 0 W/m 7,1 C 10,0 C 0,0 km/h (0 Bft)
02.04.2016 22:00 8,9 C 86 % 1014,7 hPa 0,0 l/m 0,0 km/h (0 Bft) N 0,00 h 0,000 mm 0,0 UV-I 0 W/m 6,6 C 8,9 C 0,0 km/h (0 Bft)
02.04.2016 23:00 8,1 C 88 % 1014,3 hPa 0,0 l/m 0,0 km/h (0 Bft) N 0,00 h 0,000 mm 0,0 UV-I 0 W/m 6,3 C 8,1 C 0,0 km/h (0 Bft)
03.04.2016 00:00 7,8 C 89 % 1014,2 hPa 0,0 l/m 0,0 km/h (0 Bft) N 0,00 h 0,000 mm 0,0 UV-I 0 W/m 6,1 C 7,8 C 0,0 km/h (0 Bft)
03.04.2016 01:00 7,8 C 90 % 1014,0 hPa 0,0 l/m 0,0 km/h (0 Bft) N 0,00 h 0,000 mm 0,0 UV-I 0 W/m 6,2 C 7,8 C 0,0 km/h (0 Bft)
03.04.2016 02:00 7,7 C 90 % 1013,6 hPa 0,0 l/m 0,0 km/h (0 Bft) N 0,00 h 0,000 mm 0,0 UV-I 0 W/m 6,3 C 7,7 C 0,0 km/h (0 Bft)
03.04.2016 03:00 7,8 C 91 % 1013,1 hPa 0,0 l/m 0,1 km/h (0 Bft) O-NO 0,00 h 0,000 mm 0,0 UV-I 0 W/m 6,5 C 7,8 C 0,5 km/h (0 Bft)
03.04.2016 04:00 7,9 C 91 % 1013,1 hPa 0,0 l/m 0,0 km/h (0 Bft) N 0,00 h 0,000 mm 0,0 UV-I 0 W/m 6,5 C 7,9 C 0,0 km/h (0 Bft)
03.04.2016 05:00 7,7 C 91 % 1012,8 hPa 0,0 l/m 0,0 km/h (0 Bft) N 0,00 h 0,000 mm 0,0 UV-I 0 W/m 6,4 C 7,7 C 0,0 km/h (0 Bft)
03.04.2016 06:00 7,7 C 92 % 1012,2 hPa 0,0 l/m 0,0 km/h (0 Bft) N 0,00 h 0,000 mm 0,0 UV-I 0 W/m 6,4 C 7,7 C 0,0 km/h (0 Bft)
03.04.2016 07:00 7,7 C 92 % 1012,8 hPa 0,0 l/m 0,0 km/h (0 Bft) N 0,00 h 0,000 mm 0,0 UV-I 21 W/m 6,5 C 7,7 C 0,1 km/h (0 Bft)
03.04.2016 08:00 8,1 C 92 % 1013,3 hPa 0,0 l/m 0,0 km/h (0 Bft) N 0,00 h 0,000 mm 0,0 UV-I 74 W/m 6,9 C 8,1 C 0,0 km/h (0 Bft)
03.04.2016 09:00 9,4 C 89 % 1012,8 hPa 0,0 l/m 0,1 km/h (0 Bft) O 0,08 h 0,025 mm 0,5 UV-I 129 W/m 7,7 C 9,4 C 0,7 km/h (0 Bft)
03.04.2016 10:00 13,2 C 73 % 1013,3 hPa 0,0 l/m 0,3 km/h (0 Bft) S 0,58 h 0,077 mm 1,1 UV-I 301 W/m 8,4 C 13,2 C 2,0 km/h (1 Bft)
03.04.2016 11:00 15,7 C 64 % 1013,2 hPa 0,0 l/m 0,1 km/h (0 Bft) N 0,83 h 0,152 mm 1,7 UV-I 404 W/m 9,0 C 15,7 C 2,0 km/h (1 Bft)
03.04.2016 12:00 17,5 C 60 % 1012,7 hPa 0,0 l/m 0,9 km/h (0 Bft) W-SW 0,58 h 0,229 mm 2,1 UV-I 372 W/m 9,6 C 17,5 C 5,2 km/h (1 Bft)
03.04.2016 13:00 17,3 C 61 % 1012,3 hPa 0,0 l/m 5,8 km/h (2 Bft) W-SW 0,00 h 0,203 mm 1,6 UV-I 260 W/m 9,7 C 16,9 C 14,6 km/h (3 Bft)
03.04.2016 14:00 17,9 C 60 % 1011,8 hPa 0,0 l/m 3,6 km/h (1 Bft) SW 0,25 h 0,178 mm 1,9 UV-I 315 W/m 10,0 C 17,8 C 13,2 km/h (3 Bft)
03.04.2016 15:00 18,6 C 58 % 1011,3 hPa 0,0 l/m 1,5 km/h (1 Bft) SW 0,42 h 0,203 mm 1,7 UV-I 327 W/m 10,3 C 18,6 C 7,5 km/h (2 Bft)
03.04.2016 16:00 18,6 C 58 % 1010,7 hPa 0,0 l/m 1,2 km/h (1 Bft) W-SW 0,08 h 0,203 mm 1,1 UV-I 238 W/m 10,2 C 18,6 C 7,0 km/h (2 Bft)
03.04.2016 17:00 18,7 C 58 % 1010,5 hPa 0,0 l/m 1,1 km/h (1 Bft) SO 0,00 h 0,152 mm 0,6 UV-I 173 W/m 10,3 C 18,7 C 6,5 km/h (2 Bft)
03.04.2016 18:00 18,4 C 59 % 1010,3 hPa 0,0 l/m 1,1 km/h (1 Bft) S 0,33 h 0,102 mm 0,3 UV-I 107 W/m 10,2 C 18,4 C 7,8 km/h (2 Bft)
03.04.2016 19:00 17,4 C 62 % 1010,1 hPa 0,0 l/m 0,0 km/h (0 Bft) N 0,00 h 0,076 mm 0,0 UV-I 24 W/m 10,1 C 17,4 C 0,4 km/h (0 Bft)
03.04.2016 20:00 16,2 C 68 % 1010,2 hPa 0,0 l/m 0,0 km/h (0 Bft) N 0,00 h 0,026 mm 0,0 UV-I 0 W/m 10,3 C 16,2 C 0,0 km/h (0 Bft)
03.04.2016 21:00 14,4 C 76 % 1010,3 hPa 0,0 l/m 0,0 km/h (0 Bft) N 0,00 h 0,000 mm 0,0 UV-I 0 W/m 10,2 C 14,4 C 0,0 km/h (0 Bft)
03.04.2016 22:00 13,1 C 84 % 1009,6 hPa 0,0 l/m 0,0 km/h (0 Bft) N 0,00 h 0,025 mm 0,0 UV-I 0 W/m 10,4 C 13,1 C 0,0 km/h (0 Bft)
03.04.2016 23:00 12,4 C 86 % 1009,2 hPa 0,0 l/m 0,0 km/h (0 Bft) N 0,00 h 0,000 mm 0,0 UV-I 0 W/m 10,1 C 12,4 C 0,0 km/h (0 Bft)
Min-Datum _ 02.04.16 29.03.16 28.03.16 - 28.03.16 - - - - - 02.04.16 02.04.16 28.03.16
_ Min-Zeit 07:05 17:40 16:20 - 00:10 - - - - - 07:05 07:05 00:10
Minimum _ -1,5 C 49 % 999,2 hPa - 0,0 km/h (0 Bft) - - - - - -2,5 C -1,5 C 0,0 km/h (0 Bft)
Max-Datum _ 03.04.16 30.03.16 01.04.16 28.03.16 29.03.16 - 28.03.16 29.03.16 01.04.16 01.04.16 03.04.16 03.04.16 29.03.16
_ Max-Zeit 15:35 02:40 14:10 16:40 18:45 - 07:45 15:05 13:30 13:40 15:10 17:05 18:45
Maximum _ 19,1 C 96 % 1022,0 hPa 3,4 l/m 20,9 km/h
W (4 Bft)
- 0,08 h 0,356 mm 3,9 UV-I 890 W/m 10,8 C 19,1 C 41,8 km/h
W (6 Bft)
Durchschnitt _ 7,6 C 81 % 1011,8 hPa #25,0 l/m 2,3 km/h (1 Bft) O-NO #27:30 h #9,704 mm 1,2 UV-I 197 W/m 4,4 C 7,2 C 7,6 km/h (2 Bft)